sensor_id;sensor_type;location;lat;lon;timestamp;P1;durP1;ratioP1;P2;durP2;ratioP2
19343;SDS011;9808;52.402;16.678;2022-10-31T00:01:18;112.87;;;60.13;;
19343;SDS011;9808;52.402;16.678;2022-10-31T00:03:47;177.33;;;82.53;;
19343;SDS011;9808;52.402;16.678;2022-10-31T00:06:14;163.37;;;77.67;;
19343;SDS011;9808;52.402;16.678;2022-10-31T00:08:45;210.17;;;93.50;;
19343;SDS011;9808;52.402;16.678;2022-10-31T00:11:12;224.87;;;100.70;;
19343;SDS011;9808;52.402;16.678;2022-10-31T00:13:39;211.93;;;97.83;;
19343;SDS011;9808;52.402;16.678;2022-10-31T00:16:12;233.07;;;107.93;;
19343;SDS011;9808;52.402;16.678;2022-10-31T00:18:40;249.60;;;113.90;;
19343;SDS011;9808;52.402;16.678;2022-10-31T00:21:07;221.40;;;103.97;;
19343;SDS011;9808;52.402;16.678;2022-10-31T00:23:34;216.77;;;104.97;;
19343;SDS011;9808;52.402;16.678;2022-10-31T00:26:01;223.43;;;102.67;;
19343;SDS011;9808;52.402;16.678;2022-10-31T00:28:29;178.53;;;87.23;;
19343;SDS011;9808;52.402;16.678;2022-10-31T00:31:00;149.30;;;77.17;;
19343;SDS011;9808;52.402;16.678;2022-10-31T00:33:27;127.17;;;65.13;;
19343;SDS011;9808;52.402;16.678;2022-10-31T00:35:55;112.30;;;60.93;;
19343;SDS011;9808;52.402;16.678;2022-10-31T00:38:22;98.63;;;55.83;;
19343;SDS011;9808;52.402;16.678;2022-10-31T00:40:49;102.23;;;56.40;;
19343;SDS011;9808;52.402;16.678;2022-10-31T00:43:16;104.20;;;58.20;;
19343;SDS011;9808;52.402;16.678;2022-10-31T00:45:43;104.83;;;61.30;;
19343;SDS011;9808;52.402;16.678;2022-10-31T00:48:10;99.57;;;59.63;;
19343;SDS011;9808;52.402;16.678;2022-10-31T00:50:37;89.67;;;55.47;;
19343;SDS011;9808;52.402;16.678;2022-10-31T00:53:04;88.80;;;54.13;;
19343;SDS011;9808;52.402;16.678;2022-10-31T00:55:32;70.53;;;44.53;;
19343;SDS011;9808;52.402;16.678;2022-10-31T00:57:59;69.23;;;42.13;;
19343;SDS011;9808;52.402;16.678;2022-10-31T01:00:26;65.10;;;39.77;;
19343;SDS011;9808;52.402;16.678;2022-10-31T01:02:54;68.33;;;42.40;;
19343;SDS011;9808;52.402;16.678;2022-10-31T01:05:21;65.97;;;40.90;;
19343;SDS011;9808;52.402;16.678;2022-10-31T01:07:47;64.23;;;39.60;;
19343;SDS011;9808;52.402;16.678;2022-10-31T01:10:14;58.27;;;36.50;;
19343;SDS011;9808;52.402;16.678;2022-10-31T01:12:42;63.87;;;39.07;;
19343;SDS011;9808;52.402;16.678;2022-10-31T01:15:11;55.13;;;34.57;;
19343;SDS011;9808;52.402;16.678;2022-10-31T01:17:40;53.93;;;33.57;;
19343;SDS011;9808;52.402;16.678;2022-10-31T01:20:07;46.50;;;30.93;;
19343;SDS011;9808;52.402;16.678;2022-10-31T01:22:35;45.20;;;30.37;;
19343;SDS011;9808;52.402;16.678;2022-10-31T01:25:02;49.07;;;30.77;;
19343;SDS011;9808;52.402;16.678;2022-10-31T01:27:29;46.70;;;30.07;;
19343;SDS011;9808;52.402;16.678;2022-10-31T01:29:57;50.63;;;30.60;;
19343;SDS011;9808;52.402;16.678;2022-10-31T01:32:24;54.43;;;30.03;;
19343;SDS011;9808;52.402;16.678;2022-10-31T01:34:51;45.23;;;28.53;;
19343;SDS011;9808;52.402;16.678;2022-10-31T01:37:18;46.87;;;29.00;;
19343;SDS011;9808;52.402;16.678;2022-10-31T01:39:44;47.97;;;30.37;;
19343;SDS011;9808;52.402;16.678;2022-10-31T01:42:15;47.07;;;29.87;;
19343;SDS011;9808;52.402;16.678;2022-10-31T01:47:22;53.83;;;32.33;;
19343;SDS011;9808;52.402;16.678;2022-10-31T01:50:01;61.20;;;34.43;;
19343;SDS011;9808;52.402;16.678;2022-10-31T01:52:39;66.53;;;38.90;;
19343;SDS011;9808;52.402;16.678;2022-10-31T01:55:33;97.30;;;55.50;;
19343;SDS011;9808;52.402;16.678;2022-10-31T01:58:13;136.77;;;73.30;;
19343;SDS011;9808;52.402;16.678;2022-10-31T02:00:45;243.13;;;125.27;;
19343;SDS011;9808;52.402;16.678;2022-10-31T02:03:14;246.63;;;128.50;;
19343;SDS011;9808;52.402;16.678;2022-10-31T02:05:42;182.30;;;95.47;;
19343;SDS011;9808;52.402;16.678;2022-10-31T02:08:28;155.70;;;81.07;;
19343;SDS011;9808;52.402;16.678;2022-10-31T02:10:57;125.27;;;66.33;;
19343;SDS011;9808;52.402;16.678;2022-10-31T02:13:25;166.00;;;81.40;;
19343;SDS011;9808;52.402;16.678;2022-10-31T02:15:54;130.27;;;68.97;;
19343;SDS011;9808;52.402;16.678;2022-10-31T02:18:24;116.30;;;62.20;;
19343;SDS011;9808;52.402;16.678;2022-10-31T02:23:56;113.63;;;57.87;;
19343;SDS011;9808;52.402;16.678;2022-10-31T02:29:33;81.10;;;46.13;;
19343;SDS011;9808;52.402;16.678;2022-10-31T02:32:43;78.57;;;42.40;;
19343;SDS011;9808;52.402;16.678;2022-10-31T02:38:10;61.37;;;32.87;;
19343;SDS011;9808;52.402;16.678;2022-10-31T02:43:35;53.90;;;28.47;;
19343;SDS011;9808;52.402;16.678;2022-10-31T02:46:12;49.90;;;28.47;;
19343;SDS011;9808;52.402;16.678;2022-10-31T02:48:44;47.10;;;27.23;;
19343;SDS011;9808;52.402;16.678;2022-10-31T02:51:13;55.53;;;28.27;;
19343;SDS011;9808;52.402;16.678;2022-10-31T02:53:40;40.87;;;25.63;;
19343;SDS011;9808;52.402;16.678;2022-10-31T02:56:10;44.80;;;26.70;;
19343;SDS011;9808;52.402;16.678;2022-10-31T02:58:46;45.00;;;26.17;;
19343;SDS011;9808;52.402;16.678;2022-10-31T03:01:33;41.47;;;25.40;;
19343;SDS011;9808;52.402;16.678;2022-10-31T03:12:56;47.30;;;27.07;;
19343;SDS011;9808;52.402;16.678;2022-10-31T03:15:37;53.63;;;27.17;;
19343;SDS011;9808;52.402;16.678;2022-10-31T03:18:25;51.33;;;27.00;;
19343;SDS011;9808;52.402;16.678;2022-10-31T03:21:19;50.27;;;28.03;;
19343;SDS011;9808;52.402;16.678;2022-10-31T03:23:53;62.03;;;30.07;;
19343;SDS011;9808;52.402;16.678;2022-10-31T03:26:23;58.57;;;30.83;;
19343;SDS011;9808;52.402;16.678;2022-10-31T03:29:01;51.40;;;29.10;;
19343;SDS011;9808;52.402;16.678;2022-10-31T03:31:33;52.43;;;28.97;;
19343;SDS011;9808;52.402;16.678;2022-10-31T03:34:05;57.47;;;29.37;;
19343;SDS011;9808;52.402;16.678;2022-10-31T03:36:34;51.43;;;28.43;;
19343;SDS011;9808;52.402;16.678;2022-10-31T03:39:04;50.70;;;28.03;;
19343;SDS011;9808;52.402;16.678;2022-10-31T03:41:35;50.03;;;28.47;;
19343;SDS011;9808;52.402;16.678;2022-10-31T03:44:08;48.67;;;27.13;;
19343;SDS011;9808;52.402;16.678;2022-10-31T03:46:40;48.93;;;27.37;;
19343;SDS011;9808;52.402;16.678;2022-10-31T03:49:08;48.33;;;26.53;;
19343;SDS011;9808;52.402;16.678;2022-10-31T03:54:25;49.43;;;26.87;;
19343;SDS011;9808;52.402;16.678;2022-10-31T03:57:21;46.67;;;27.10;;
19343;SDS011;9808;52.402;16.678;2022-10-31T03:59:51;50.53;;;28.00;;
19343;SDS011;9808;52.402;16.678;2022-10-31T04:02:24;45.67;;;26.17;;
19343;SDS011;9808;52.402;16.678;2022-10-31T04:04:55;48.20;;;26.97;;
19343;SDS011;9808;52.402;16.678;2022-10-31T04:07:23;51.27;;;28.10;;
19343;SDS011;9808;52.402;16.678;2022-10-31T04:09:54;52.47;;;28.60;;
19343;SDS011;9808;52.402;16.678;2022-10-31T04:12:23;51.00;;;27.60;;
19343;SDS011;9808;52.402;16.678;2022-10-31T04:14:52;52.13;;;27.93;;
19343;SDS011;9808;52.402;16.678;2022-10-31T04:17:21;58.73;;;28.67;;
19343;SDS011;9808;52.402;16.678;2022-10-31T04:19:51;59.93;;;27.87;;
19343;SDS011;9808;52.402;16.678;2022-10-31T04:22:17;49.03;;;26.97;;
19343;SDS011;9808;52.402;16.678;2022-10-31T04:24:44;42.43;;;24.90;;
19343;SDS011;9808;52.402;16.678;2022-10-31T04:27:11;43.70;;;24.77;;
19343;SDS011;9808;52.402;16.678;2022-10-31T04:29:38;43.67;;;24.90;;
19343;SDS011;9808;52.402;16.678;2022-10-31T04:32:04;43.30;;;24.03;;
19343;SDS011;9808;52.402;16.678;2022-10-31T04:34:31;43.93;;;23.87;;
19343;SDS011;9808;52.402;16.678;2022-10-31T04:36:58;46.27;;;23.50;;
19343;SDS011;9808;52.402;16.678;2022-10-31T04:39:25;36.90;;;22.90;;
19343;SDS011;9808;52.402;16.678;2022-10-31T04:41:52;43.03;;;24.47;;
19343;SDS011;9808;52.402;16.678;2022-10-31T04:44:19;42.90;;;24.10;;
19343;SDS011;9808;52.402;16.678;2022-10-31T04:46:45;42.17;;;24.53;;
19343;SDS011;9808;52.402;16.678;2022-10-31T04:49:12;40.43;;;24.17;;
19343;SDS011;9808;52.402;16.678;2022-10-31T04:51:39;41.33;;;23.57;;
19343;SDS011;9808;52.402;16.678;2022-10-31T04:54:06;39.57;;;23.43;;
19343;SDS011;9808;52.402;16.678;2022-10-31T04:56:33;36.43;;;22.37;;
19343;SDS011;9808;52.402;16.678;2022-10-31T04:58:59;36.90;;;23.57;;
19343;SDS011;9808;52.402;16.678;2022-10-31T05:01:26;53.17;;;24.23;;
19343;SDS011;9808;52.402;16.678;2022-10-31T05:03:54;45.43;;;23.83;;
19343;SDS011;9808;52.402;16.678;2022-10-31T05:06:21;39.30;;;22.67;;
19343;SDS011;9808;52.402;16.678;2022-10-31T05:08:47;38.83;;;22.43;;
19343;SDS011;9808;52.402;16.678;2022-10-31T05:11:14;41.47;;;22.73;;
19343;SDS011;9808;52.402;16.678;2022-10-31T05:13:41;35.90;;;22.33;;
19343;SDS011;9808;52.402;16.678;2022-10-31T05:16:08;37.63;;;22.03;;
19343;SDS011;9808;52.402;16.678;2022-10-31T05:18:34;37.97;;;22.87;;
19343;SDS011;9808;52.402;16.678;2022-10-31T05:21:01;34.67;;;21.77;;
19343;SDS011;9808;52.402;16.678;2022-10-31T05:23:28;33.37;;;20.13;;
19343;SDS011;9808;52.402;16.678;2022-10-31T05:25:54;41.03;;;21.80;;
19343;SDS011;9808;52.402;16.678;2022-10-31T05:28:21;39.50;;;21.67;;
19343;SDS011;9808;52.402;16.678;2022-10-31T05:30:48;38.87;;;21.00;;
19343;SDS011;9808;52.402;16.678;2022-10-31T05:33:15;35.63;;;21.47;;
19343;SDS011;9808;52.402;16.678;2022-10-31T05:35:42;31.57;;;20.30;;
19343;SDS011;9808;52.402;16.678;2022-10-31T05:38:09;30.83;;;19.23;;
19343;SDS011;9808;52.402;16.678;2022-10-31T05:40:36;37.73;;;19.87;;
19343;SDS011;9808;52.402;16.678;2022-10-31T05:43:02;34.93;;;20.37;;
19343;SDS011;9808;52.402;16.678;2022-10-31T05:45:29;37.60;;;22.00;;
19343;SDS011;9808;52.402;16.678;2022-10-31T05:47:57;36.17;;;21.80;;
19343;SDS011;9808;52.402;16.678;2022-10-31T05:50:26;38.97;;;22.33;;
19343;SDS011;9808;52.402;16.678;2022-10-31T05:52:58;32.30;;;21.53;;
19343;SDS011;9808;52.402;16.678;2022-10-31T05:55:27;35.07;;;23.40;;
19343;SDS011;9808;52.402;16.678;2022-10-31T05:57:54;50.23;;;31.93;;
19343;SDS011;9808;52.402;16.678;2022-10-31T06:00:22;66.97;;;39.40;;
19343;SDS011;9808;52.402;16.678;2022-10-31T06:02:57;129.33;;;63.77;;
19343;SDS011;9808;52.402;16.678;2022-10-31T06:05:28;111.43;;;58.10;;
19343;SDS011;9808;52.402;16.678;2022-10-31T06:07:56;102.03;;;56.23;;
19343;SDS011;9808;52.402;16.678;2022-10-31T06:10:24;91.57;;;52.00;;
19343;SDS011;9808;52.402;16.678;2022-10-31T06:12:51;88.93;;;49.03;;
19343;SDS011;9808;52.402;16.678;2022-10-31T06:15:18;73.97;;;41.97;;
19343;SDS011;9808;52.402;16.678;2022-10-31T06:17:59;66.50;;;38.77;;
19343;SDS011;9808;52.402;16.678;2022-10-31T06:20:31;55.93;;;32.80;;
19343;SDS011;9808;52.402;16.678;2022-10-31T06:22:58;53.30;;;32.67;;
19343;SDS011;9808;52.402;16.678;2022-10-31T06:25:26;49.60;;;29.10;;
19343;SDS011;9808;52.402;16.678;2022-10-31T06:27:54;51.40;;;29.07;;
19343;SDS011;9808;52.402;16.678;2022-10-31T06:30:21;60.93;;;32.10;;
19343;SDS011;9808;52.402;16.678;2022-10-31T06:32:47;86.93;;;33.73;;
19343;SDS011;9808;52.402;16.678;2022-10-31T06:35:15;67.40;;;31.27;;
19343;SDS011;9808;52.402;16.678;2022-10-31T06:37:43;64.60;;;31.67;;
19343;SDS011;9808;52.402;16.678;2022-10-31T06:40:16;68.90;;;32.97;;
19343;SDS011;9808;52.402;16.678;2022-10-31T06:42:43;79.50;;;34.73;;
19343;SDS011;9808;52.402;16.678;2022-10-31T06:45:10;106.53;;;37.47;;
19343;SDS011;9808;52.402;16.678;2022-10-31T06:47:36;82.00;;;34.93;;
19343;SDS011;9808;52.402;16.678;2022-10-31T06:50:23;76.33;;;35.40;;
19343;SDS011;9808;52.402;16.678;2022-10-31T06:52:51;88.07;;;39.53;;
19343;SDS011;9808;52.402;16.678;2022-10-31T06:55:18;80.13;;;36.63;;
19343;SDS011;9808;52.402;16.678;2022-10-31T06:57:49;149.07;;;65.47;;
19343;SDS011;9808;52.402;16.678;2022-10-31T07:00:17;175.40;;;87.30;;
19343;SDS011;9808;52.402;16.678;2022-10-31T07:02:44;152.60;;;78.43;;
19343;SDS011;9808;52.402;16.678;2022-10-31T07:05:19;145.27;;;71.67;;
19343;SDS011;9808;52.402;16.678;2022-10-31T07:07:46;125.77;;;62.17;;
19343;SDS011;9808;52.402;16.678;2022-10-31T07:10:13;126.57;;;64.80;;
19343;SDS011;9808;52.402;16.678;2022-10-31T07:12:40;119.37;;;63.13;;
19343;SDS011;9808;52.402;16.678;2022-10-31T07:15:07;120.60;;;65.43;;
19343;SDS011;9808;52.402;16.678;2022-10-31T07:17:34;128.20;;;62.20;;
19343;SDS011;9808;52.402;16.678;2022-10-31T07:20:01;101.63;;;55.97;;
19343;SDS011;9808;52.402;16.678;2022-10-31T07:22:37;77.13;;;44.93;;
19343;SDS011;9808;52.402;16.678;2022-10-31T07:25:04;70.40;;;38.30;;
19343;SDS011;9808;52.402;16.678;2022-10-31T07:27:35;83.10;;;40.03;;
19343;SDS011;9808;52.402;16.678;2022-10-31T07:30:09;66.47;;;36.60;;
19343;SDS011;9808;52.402;16.678;2022-10-31T07:32:40;67.57;;;35.87;;
19343;SDS011;9808;52.402;16.678;2022-10-31T07:35:09;60.27;;;32.27;;
19343;SDS011;9808;52.402;16.678;2022-10-31T07:37:38;51.57;;;30.53;;
19343;SDS011;9808;52.402;16.678;2022-10-31T07:40:05;52.60;;;26.83;;
19343;SDS011;9808;52.402;16.678;2022-10-31T07:42:34;42.93;;;25.50;;
19343;SDS011;9808;52.402;16.678;2022-10-31T07:45:06;41.77;;;25.03;;
19343;SDS011;9808;52.402;16.678;2022-10-31T07:47:41;40.50;;;23.83;;
19343;SDS011;9808;52.402;16.678;2022-10-31T07:50:13;36.73;;;23.80;;
19343;SDS011;9808;52.402;16.678;2022-10-31T07:52:41;39.17;;;25.13;;
19343;SDS011;9808;52.402;16.678;2022-10-31T07:55:08;39.07;;;24.50;;
19343;SDS011;9808;52.402;16.678;2022-10-31T07:57:35;40.33;;;26.67;;
19343;SDS011;9808;52.402;16.678;2022-10-31T08:00:06;49.60;;;33.80;;
19343;SDS011;9808;52.402;16.678;2022-10-31T08:02:36;47.93;;;28.43;;
19343;SDS011;9808;52.402;16.678;2022-10-31T08:05:02;45.63;;;27.47;;
19343;SDS011;9808;52.402;16.678;2022-10-31T08:07:34;43.40;;;26.87;;
19343;SDS011;9808;52.402;16.678;2022-10-31T08:10:03;40.43;;;30.03;;
19343;SDS011;9808;52.402;16.678;2022-10-31T08:12:30;32.73;;;24.53;;
19343;SDS011;9808;52.402;16.678;2022-10-31T08:14:57;33.73;;;22.27;;
19343;SDS011;9808;52.402;16.678;2022-10-31T08:17:24;31.10;;;21.53;;
19343;SDS011;9808;52.402;16.678;2022-10-31T08:19:50;30.63;;;21.10;;
19343;SDS011;9808;52.402;16.678;2022-10-31T08:22:17;31.27;;;21.77;;
19343;SDS011;9808;52.402;16.678;2022-10-31T08:24:44;29.97;;;21.30;;
19343;SDS011;9808;52.402;16.678;2022-10-31T08:27:11;34.20;;;22.40;;
19343;SDS011;9808;52.402;16.678;2022-10-31T08:29:38;30.20;;;21.97;;
19343;SDS011;9808;52.402;16.678;2022-10-31T08:32:04;30.83;;;21.63;;
19343;SDS011;9808;52.402;16.678;2022-10-31T08:34:31;30.67;;;20.97;;
19343;SDS011;9808;52.402;16.678;2022-10-31T08:36:58;36.50;;;22.90;;
19343;SDS011;9808;52.402;16.678;2022-10-31T08:39:25;32.60;;;22.10;;
19343;SDS011;9808;52.402;16.678;2022-10-31T08:41:51;32.43;;;22.83;;
19343;SDS011;9808;52.402;16.678;2022-10-31T08:44:18;36.30;;;23.57;;
19343;SDS011;9808;52.402;16.678;2022-10-31T08:46:45;36.53;;;23.73;;
19343;SDS011;9808;52.402;16.678;2022-10-31T08:49:12;41.83;;;24.90;;
19343;SDS011;9808;52.402;16.678;2022-10-31T08:51:38;40.10;;;24.63;;
19343;SDS011;9808;52.402;16.678;2022-10-31T08:54:05;39.17;;;25.07;;
19343;SDS011;9808;52.402;16.678;2022-10-31T08:56:32;40.33;;;25.33;;
19343;SDS011;9808;52.402;16.678;2022-10-31T08:58:59;45.77;;;27.23;;
19343;SDS011;9808;52.402;16.678;2022-10-31T09:01:26;43.00;;;27.10;;
19343;SDS011;9808;52.402;16.678;2022-10-31T09:03:52;44.63;;;28.43;;
19343;SDS011;9808;52.402;16.678;2022-10-31T09:06:19;52.20;;;28.17;;
19343;SDS011;9808;52.402;16.678;2022-10-31T09:08:46;50.87;;;29.37;;
19343;SDS011;9808;52.402;16.678;2022-10-31T09:11:13;41.43;;;28.10;;
19343;SDS011;9808;52.402;16.678;2022-10-31T09:13:43;42.87;;;28.77;;
19343;SDS011;9808;52.402;16.678;2022-10-31T09:16:10;50.30;;;29.90;;
19343;SDS011;9808;52.402;16.678;2022-10-31T09:18:37;48.10;;;29.07;;
19343;SDS011;9808;52.402;16.678;2022-10-31T09:21:03;50.10;;;30.83;;
19343;SDS011;9808;52.402;16.678;2022-10-31T09:23:30;52.10;;;30.67;;
19343;SDS011;9808;52.402;16.678;2022-10-31T09:25:59;48.20;;;29.13;;
19343;SDS011;9808;52.402;16.678;2022-10-31T09:28:26;50.10;;;28.80;;
19343;SDS011;9808;52.402;16.678;2022-10-31T09:30:53;50.23;;;30.60;;
19343;SDS011;9808;52.402;16.678;2022-10-31T09:33:20;49.47;;;30.00;;
19343;SDS011;9808;52.402;16.678;2022-10-31T09:35:47;44.33;;;28.90;;
19343;SDS011;9808;52.402;16.678;2022-10-31T09:38:18;47.10;;;28.07;;
19343;SDS011;9808;52.402;16.678;2022-10-31T09:40:47;51.73;;;29.40;;
19343;SDS011;9808;52.402;16.678;2022-10-31T09:46:13;47.80;;;29.40;;
19343;SDS011;9808;52.402;16.678;2022-10-31T09:51:40;47.40;;;29.17;;
19343;SDS011;9808;52.402;16.678;2022-10-31T09:57:10;48.87;;;28.47;;
19343;SDS011;9808;52.402;16.678;2022-10-31T09:59:40;47.43;;;28.30;;
19343;SDS011;9808;52.402;16.678;2022-10-31T10:02:14;45.73;;;28.80;;
19343;SDS011;9808;52.402;16.678;2022-10-31T10:04:58;48.53;;;28.20;;
19343;SDS011;9808;52.402;16.678;2022-10-31T10:13:13;48.60;;;29.07;;
19343;SDS011;9808;52.402;16.678;2022-10-31T10:18:54;50.58;;;28.50;;
19343;SDS011;9808;52.402;16.678;2022-10-31T10:29:52;46.03;;;27.15;;
19343;SDS011;9808;52.402;16.678;2022-10-31T10:32:31;47.17;;;28.15;;
19343;SDS011;9808;52.402;16.678;2022-10-31T10:35:11;44.28;;;27.60;;
19343;SDS011;9808;52.402;16.678;2022-10-31T10:37:46;50.22;;;26.77;;
19343;SDS011;9808;52.402;16.678;2022-10-31T10:40:17;43.45;;;25.38;;
19343;SDS011;9808;52.402;16.678;2022-10-31T10:42:47;46.22;;;24.70;;
19343;SDS011;9808;52.402;16.678;2022-10-31T10:45:43;43.10;;;23.95;;
19343;SDS011;9808;52.402;16.678;2022-10-31T10:51:30;49.35;;;23.92;;
19343;SDS011;9808;52.402;16.678;2022-10-31T10:57:32;39.28;;;21.65;;
19343;SDS011;9808;52.402;16.678;2022-10-31T11:00:19;38.15;;;23.08;;
19343;SDS011;9808;52.402;16.678;2022-10-31T11:02:47;40.83;;;22.55;;
19343;SDS011;9808;52.402;16.678;2022-10-31T11:05:23;36.90;;;20.75;;
19343;SDS011;9808;52.402;16.678;2022-10-31T11:07:54;34.70;;;21.35;;
19343;SDS011;9808;52.402;16.678;2022-10-31T11:10:21;34.95;;;20.85;;
19343;SDS011;9808;52.402;16.678;2022-10-31T11:15:51;36.08;;;20.42;;
19343;SDS011;9808;52.402;16.678;2022-10-31T11:18:25;35.40;;;20.60;;
19343;SDS011;9808;52.402;16.678;2022-10-31T11:20:55;39.95;;;20.73;;
19343;SDS011;9808;52.402;16.678;2022-10-31T11:23:24;32.38;;;19.83;;
19343;SDS011;9808;52.402;16.678;2022-10-31T11:25:54;33.92;;;19.73;;
19343;SDS011;9808;52.402;16.678;2022-10-31T11:28:24;31.73;;;20.77;;
19343;SDS011;9808;52.402;16.678;2022-10-31T11:30:54;35.30;;;19.63;;
19343;SDS011;9808;52.402;16.678;2022-10-31T11:33:28;32.70;;;18.73;;
19343;SDS011;9808;52.402;16.678;2022-10-31T11:35:58;35.92;;;19.35;;
19343;SDS011;9808;52.402;16.678;2022-10-31T11:38:33;35.80;;;18.33;;
19343;SDS011;9808;52.402;16.678;2022-10-31T11:41:11;35.85;;;19.80;;
19343;SDS011;9808;52.402;16.678;2022-10-31T11:43:48;41.72;;;20.67;;
19343;SDS011;9808;52.402;16.678;2022-10-31T11:46:30;33.67;;;20.15;;
19343;SDS011;9808;52.402;16.678;2022-10-31T11:49:00;33.72;;;19.52;;
19343;SDS011;9808;52.402;16.678;2022-10-31T11:51:32;30.13;;;17.55;;
19343;SDS011;9808;52.402;16.678;2022-10-31T11:54:01;32.70;;;18.15;;
19343;SDS011;9808;52.402;16.678;2022-10-31T11:56:39;36.38;;;19.65;;
19343;SDS011;9808;52.402;16.678;2022-10-31T11:59:26;36.85;;;19.10;;
19343;SDS011;9808;52.402;16.678;2022-10-31T12:01:56;31.08;;;16.80;;
19343;SDS011;9808;52.402;16.678;2022-10-31T12:04:29;30.50;;;18.33;;
19343;SDS011;9808;52.402;16.678;2022-10-31T12:07:07;30.77;;;19.33;;
19343;SDS011;9808;52.402;16.678;2022-10-31T12:09:35;38.53;;;18.33;;
19343;SDS011;9808;52.402;16.678;2022-10-31T12:23:25;25.10;;;15.38;;
19343;SDS011;9808;52.402;16.678;2022-10-31T12:29:10;31.63;;;15.70;;
19343;SDS011;9808;52.402;16.678;2022-10-31T12:31:56;31.13;;;16.65;;
19343;SDS011;9808;52.402;16.678;2022-10-31T12:34:55;37.30;;;17.35;;
19343;SDS011;9808;52.402;16.678;2022-10-31T12:37:31;37.25;;;16.42;;
19343;SDS011;9808;52.402;16.678;2022-10-31T12:46:02;36.00;;;17.67;;
19343;SDS011;9808;52.402;16.678;2022-10-31T12:48:51;36.97;;;17.48;;
19343;SDS011;9808;52.402;16.678;2022-10-31T12:57:39;32.85;;;16.38;;
19343;SDS011;9808;52.402;16.678;2022-10-31T13:00:16;33.85;;;15.48;;
19343;SDS011;9808;52.402;16.678;2022-10-31T13:02:51;26.00;;;16.10;;
19343;SDS011;9808;52.402;16.678;2022-10-31T13:05:31;29.00;;;15.43;;
19343;SDS011;9808;52.402;16.678;2022-10-31T13:08:10;23.63;;;15.35;;
19343;SDS011;9808;52.402;16.678;2022-10-31T13:13:44;28.92;;;14.80;;
19343;SDS011;9808;52.402;16.678;2022-10-31T13:16:23;29.90;;;15.20;;
19343;SDS011;9808;52.402;16.678;2022-10-31T13:18:55;28.33;;;15.55;;
19343;SDS011;9808;52.402;16.678;2022-10-31T13:21:28;30.25;;;15.57;;
19343;SDS011;9808;52.402;16.678;2022-10-31T13:24:01;28.33;;;15.52;;
19343;SDS011;9808;52.402;16.678;2022-10-31T13:29:13;27.70;;;15.93;;
19343;SDS011;9808;52.402;16.678;2022-10-31T13:31:59;29.60;;;15.90;;
19343;SDS011;9808;52.402;16.678;2022-10-31T13:37:01;26.10;;;15.45;;
19343;SDS011;9808;52.402;16.678;2022-10-31T13:40:10;30.70;;;15.55;;
19343;SDS011;9808;52.402;16.678;2022-10-31T13:42:53;29.08;;;15.82;;
19343;SDS011;9808;52.402;16.678;2022-10-31T13:45:53;29.90;;;15.88;;
19343;SDS011;9808;52.402;16.678;2022-10-31T13:50:55;34.25;;;15.80;;
19343;SDS011;9808;52.402;16.678;2022-10-31T13:56:18;30.52;;;14.85;;
19343;SDS011;9808;52.402;16.678;2022-10-31T13:59:04;36.03;;;16.33;;
19343;SDS011;9808;52.402;16.678;2022-10-31T14:01:46;36.55;;;14.80;;
19343;SDS011;9808;52.402;16.678;2022-10-31T14:04:23;31.25;;;16.05;;
19343;SDS011;9808;52.402;16.678;2022-10-31T14:09:28;26.40;;;15.30;;
19343;SDS011;9808;52.402;16.678;2022-10-31T14:12:00;24.67;;;15.02;;
19343;SDS011;9808;52.402;16.678;2022-10-31T14:14:46;29.75;;;15.60;;
19343;SDS011;9808;52.402;16.678;2022-10-31T14:17:21;28.00;;;16.05;;
19343;SDS011;9808;52.402;16.678;2022-10-31T14:22:35;25.98;;;15.10;;
19343;SDS011;9808;52.402;16.678;2022-10-31T14:25:26;39.65;;;16.67;;
19343;SDS011;9808;52.402;16.678;2022-10-31T14:28:19;30.40;;;17.08;;
19343;SDS011;9808;52.402;16.678;2022-10-31T14:30:57;33.22;;;16.33;;
19343;SDS011;9808;52.402;16.678;2022-10-31T14:33:25;28.08;;;17.15;;
19343;SDS011;9808;52.402;16.678;2022-10-31T14:44:19;39.00;;;16.42;;
19343;SDS011;9808;52.402;16.678;2022-10-31T14:47:31;29.58;;;15.93;;
19343;SDS011;9808;52.402;16.678;2022-10-31T14:53:15;30.55;;;15.13;;
19343;SDS011;9808;52.402;16.678;2022-10-31T14:55:57;21.60;;;14.70;;
19343;SDS011;9808;52.402;16.678;2022-10-31T14:58:41;23.20;;;14.35;;
19343;SDS011;9808;52.402;16.678;2022-10-31T15:01:17;29.67;;;14.98;;
19343;SDS011;9808;52.402;16.678;2022-10-31T15:04:19;27.92;;;14.68;;
19343;SDS011;9808;52.402;16.678;2022-10-31T15:07:05;28.60;;;14.30;;
19343;SDS011;9808;52.402;16.678;2022-10-31T15:09:59;26.05;;;13.32;;
19343;SDS011;9808;52.402;16.678;2022-10-31T15:12:29;28.98;;;14.07;;
19343;SDS011;9808;52.402;16.678;2022-10-31T15:15:09;33.88;;;15.43;;
19343;SDS011;9808;52.402;16.678;2022-10-31T15:17:43;33.70;;;17.45;;
19343;SDS011;9808;52.402;16.678;2022-10-31T15:20:12;30.48;;;15.95;;
19343;SDS011;9808;52.402;16.678;2022-10-31T15:22:43;31.50;;;17.98;;
19343;SDS011;9808;52.402;16.678;2022-10-31T15:25:17;31.77;;;18.45;;
19343;SDS011;9808;52.402;16.678;2022-10-31T15:27:46;36.08;;;20.52;;
19343;SDS011;9808;52.402;16.678;2022-10-31T15:30:21;39.63;;;23.67;;
19343;SDS011;9808;52.402;16.678;2022-10-31T15:32:49;41.00;;;22.95;;
19343;SDS011;9808;52.402;16.678;2022-10-31T15:35:28;44.92;;;24.10;;
19343;SDS011;9808;52.402;16.678;2022-10-31T15:37:57;39.35;;;24.77;;
19343;SDS011;9808;52.402;16.678;2022-10-31T15:40:25;47.95;;;26.88;;
19343;SDS011;9808;52.402;16.678;2022-10-31T15:42:54;47.53;;;28.73;;
19343;SDS011;9808;52.402;16.678;2022-10-31T15:45:22;55.22;;;32.45;;
19343;SDS011;9808;52.402;16.678;2022-10-31T15:47:59;54.20;;;32.13;;
19343;SDS011;9808;52.402;16.678;2022-10-31T15:50:35;57.15;;;31.75;;
19343;SDS011;9808;52.402;16.678;2022-10-31T15:53:04;45.00;;;29.25;;
19343;SDS011;9808;52.402;16.678;2022-10-31T15:55:45;51.95;;;30.33;;
19343;SDS011;9808;52.402;16.678;2022-10-31T15:58:15;51.78;;;29.77;;
19343;SDS011;9808;52.402;16.678;2022-10-31T16:00:43;44.53;;;26.02;;
19343;SDS011;9808;52.402;16.678;2022-10-31T16:05:38;47.70;;;22.85;;
19343;SDS011;9808;52.402;16.678;2022-10-31T16:10:59;34.55;;;21.35;;
19343;SDS011;9808;52.402;16.678;2022-10-31T16:13:33;37.13;;;22.38;;
19343;SDS011;9808;52.402;16.678;2022-10-31T16:16:12;35.58;;;21.42;;
19343;SDS011;9808;52.402;16.678;2022-10-31T16:19:02;39.70;;;22.08;;
19343;SDS011;9808;52.402;16.678;2022-10-31T16:21:35;41.47;;;23.45;;
19343;SDS011;9808;52.402;16.678;2022-10-31T16:24:04;55.38;;;30.00;;
19343;SDS011;9808;52.402;16.678;2022-10-31T16:26:49;48.60;;;29.02;;
19343;SDS011;9808;52.402;16.678;2022-10-31T16:29:26;46.67;;;27.42;;
19343;SDS011;9808;52.402;16.678;2022-10-31T16:31:58;52.50;;;29.17;;
19343;SDS011;9808;52.402;16.678;2022-10-31T16:34:25;48.28;;;30.35;;
19343;SDS011;9808;52.402;16.678;2022-10-31T16:36:52;60.70;;;31.77;;
19343;SDS011;9808;52.402;16.678;2022-10-31T16:39:19;53.47;;;31.23;;
19343;SDS011;9808;52.402;16.678;2022-10-31T16:41:47;51.83;;;31.73;;
19343;SDS011;9808;52.402;16.678;2022-10-31T16:44:17;55.90;;;33.15;;
19343;SDS011;9808;52.402;16.678;2022-10-31T16:46:48;56.57;;;32.17;;
19343;SDS011;9808;52.402;16.678;2022-10-31T16:49:30;54.45;;;32.95;;